createdAt,value
2023-03-18T00:01:46.922Z,2.73
2023-03-18T00:04:16.564Z,2.70
2023-03-18T00:06:44.914Z,2.63
2023-03-18T00:09:13.914Z,2.50
2023-03-18T00:11:42.261Z,2.67
2023-03-18T00:14:11.140Z,2.90
2023-03-18T00:16:40.873Z,2.70
2023-03-18T00:19:09.430Z,3.03
2023-03-18T00:21:37.611Z,2.80
2023-03-18T00:24:05.867Z,2.60
2023-03-18T00:26:34.301Z,2.90
2023-03-18T00:29:02.698Z,2.83
2023-03-18T00:31:31.373Z,2.77
2023-03-18T00:34:01.063Z,2.43
2023-03-18T00:36:30.473Z,2.63
2023-03-18T00:38:59.580Z,3.03
2023-03-18T00:41:28.455Z,2.67
2023-03-18T00:43:57.096Z,2.43
2023-03-18T00:46:26.799Z,2.50
2023-03-18T00:48:55.726Z,2.90
2023-03-18T00:51:26.457Z,3.10
2023-03-18T00:53:55.749Z,2.60
2023-03-18T00:56:25.673Z,2.67
2023-03-18T00:58:54.590Z,2.53
2023-03-18T01:01:23.457Z,3.43
2023-03-18T01:03:51.853Z,2.70
2023-03-18T01:06:22.538Z,2.50
2023-03-18T01:08:52.565Z,2.50
2023-03-18T01:11:20.850Z,2.70
2023-03-18T01:13:49.330Z,3.07
2023-03-18T01:16:17.769Z,2.63
2023-03-18T01:18:46.673Z,2.63
2023-03-18T01:21:15.404Z,2.70
2023-03-18T01:23:43.611Z,2.53
2023-03-18T01:26:13.149Z,2.83
2023-03-18T01:28:42.233Z,2.60
2023-03-18T01:31:10.423Z,2.93
2023-03-18T01:33:38.590Z,2.40
2023-03-18T01:36:08.079Z,2.60
2023-03-18T01:38:36.328Z,2.57
2023-03-18T01:41:05.063Z,2.50
2023-03-18T01:43:35.569Z,2.80
2023-03-18T01:46:04.803Z,2.40
2023-03-18T01:48:39.616Z,2.63
2023-03-18T01:51:10.037Z,2.40
2023-03-18T01:53:40.710Z,2.70
2023-03-18T01:56:09.917Z,2.50
2023-03-18T01:58:41.835Z,2.50
2023-03-18T02:01:14.445Z,2.37
2023-03-18T02:03:44.164Z,2.60
2023-03-18T02:06:13.626Z,2.57
2023-03-18T02:08:41.845Z,2.33
2023-03-18T02:11:11.735Z,2.60
2023-03-18T02:13:42.559Z,2.60
2023-03-18T02:16:12.111Z,2.53
2023-03-18T02:18:42.010Z,2.60
2023-03-18T02:21:16.701Z,2.47
2023-03-18T02:23:50.882Z,2.90
2023-03-18T02:26:22.826Z,2.60
2023-03-18T02:28:53.682Z,2.47
2023-03-18T02:31:21.938Z,2.70
2023-03-18T02:33:50.208Z,2.90
2023-03-18T02:36:20.613Z,3.00
2023-03-18T02:38:49.458Z,2.50
2023-03-18T02:41:18.298Z,2.80
2023-03-18T02:43:46.812Z,2.70
2023-03-18T02:46:28.762Z,2.90
2023-03-18T02:48:57.695Z,2.60
2023-03-18T02:51:26.092Z,2.43
2023-03-18T02:53:55.547Z,2.73
2023-03-18T02:56:23.849Z,2.73
2023-03-18T02:58:52.621Z,2.53
2023-03-18T03:01:20.995Z,2.90
2023-03-18T03:03:51.194Z,2.73
2023-03-18T03:06:19.399Z,2.67
2023-03-18T03:08:47.625Z,2.70
2023-03-18T03:11:15.838Z,2.60
2023-03-18T03:13:45.357Z,2.80
2023-03-18T03:16:14.142Z,2.20
2023-03-18T03:18:42.353Z,2.50
2023-03-18T03:21:12.871Z,2.73
2023-03-18T03:23:42.643Z,2.30
2023-03-18T03:26:11.638Z,2.60
2023-03-18T03:28:39.873Z,2.37
2023-03-18T03:31:08.837Z,2.53
2023-03-18T03:33:37.474Z,2.60
2023-03-18T03:36:06.644Z,2.17
2023-03-18T03:38:36.198Z,2.40
2023-03-18T03:41:05.285Z,2.27
2023-03-18T03:43:33.868Z,2.37
2023-03-18T03:46:02.215Z,2.40
2023-03-18T03:48:30.430Z,2.30
2023-03-18T03:50:58.733Z,2.73
2023-03-18T03:53:26.937Z,2.20
2023-03-18T03:55:59.073Z,2.23
2023-03-18T03:58:27.555Z,2.13
2023-03-18T04:00:55.810Z,2.23
2023-03-18T04:03:25.482Z,2.10
2023-03-18T04:05:53.649Z,2.13
2023-03-18T04:08:22.084Z,2.00
2023-03-18T04:10:50.249Z,2.10
2023-03-18T04:13:19.925Z,2.50
2023-03-18T04:15:48.145Z,2.07
2023-03-18T04:18:16.926Z,2.27
2023-03-18T04:20:46.182Z,2.53
2023-03-18T04:23:14.344Z,2.20
2023-03-18T04:25:42.734Z,2.33
2023-03-18T04:28:10.936Z,2.60
2023-03-18T04:30:40.522Z,2.50
2023-03-18T04:33:10.156Z,1.87
2023-03-18T04:35:38.494Z,2.40
2023-03-18T04:38:06.668Z,2.07
2023-03-18T04:40:34.842Z,2.00
2023-03-18T04:43:03.017Z,2.40
2023-03-18T04:45:31.373Z,2.23
2023-03-18T04:48:00.926Z,2.40
2023-03-18T04:50:29.994Z,2.30
2023-03-18T04:52:58.462Z,2.23
2023-03-18T04:55:26.609Z,2.47
2023-03-18T04:57:55.523Z,2.70
2023-03-18T05:00:24.114Z,2.23
2023-03-18T05:02:52.293Z,2.30
2023-03-18T05:05:22.140Z,2.30
2023-03-18T05:07:50.341Z,2.00
2023-03-18T05:10:18.813Z,2.73
2023-03-18T05:12:48.545Z,2.53
2023-03-18T05:15:16.737Z,2.50
2023-03-18T05:17:44.887Z,2.57
2023-03-18T05:20:14.579Z,2.43
2023-03-18T05:22:44.198Z,3.23
2023-03-18T05:25:12.677Z,2.90
2023-03-18T05:27:41.758Z,2.73
2023-03-18T05:30:11.025Z,2.90
2023-03-18T05:32:39.306Z,2.27
2023-03-18T05:35:07.906Z,2.47
2023-03-18T05:37:36.747Z,2.50
2023-03-18T05:40:09.781Z,2.43
2023-03-18T05:42:49.472Z,3.50
2023-03-18T05:45:23.596Z,2.43
2023-03-18T05:47:51.998Z,2.67
2023-03-18T05:50:29.924Z,2.77
2023-03-18T05:52:58.690Z,2.67
2023-03-18T05:55:29.503Z,3.03
2023-03-18T05:57:57.832Z,2.80
2023-03-18T06:00:26.555Z,2.83
2023-03-18T06:02:54.756Z,2.93
2023-03-18T06:05:24.331Z,2.70
2023-03-18T06:07:53.957Z,2.80
2023-03-18T06:10:22.573Z,2.90
2023-03-18T06:12:52.218Z,2.60
2023-03-18T06:15:21.674Z,3.10
2023-03-18T06:17:50.263Z,2.90
2023-03-18T06:20:19.705Z,2.93
2023-03-18T06:22:49.765Z,3.20
2023-03-18T06:25:19.224Z,2.80
2023-03-18T06:27:47.792Z,2.90
2023-03-18T06:30:18.239Z,2.70
2023-03-18T06:32:48.535Z,2.57
2023-03-18T06:35:16.832Z,2.47
2023-03-18T06:37:44.994Z,2.10
2023-03-18T06:40:13.549Z,2.10
2023-03-18T06:42:42.143Z,2.03
2023-03-18T06:45:10.760Z,2.30
2023-03-18T06:47:39.286Z,2.40
2023-03-18T06:50:09.262Z,1.73
2023-03-18T06:52:38.326Z,2.00
2023-03-18T06:55:07.539Z,2.10
2023-03-18T06:57:35.707Z,2.10
2023-03-18T07:00:04.523Z,1.90
2023-03-18T07:02:33.522Z,2.17
2023-03-18T07:05:01.828Z,2.10
2023-03-18T07:07:31.328Z,2.00
2023-03-18T07:10:02.636Z,1.80
2023-03-18T07:12:30.515Z,1.73
2023-03-18T07:14:58.403Z,1.60
2023-03-18T07:17:26.447Z,1.80
2023-03-18T07:19:54.599Z,1.90
2023-03-18T07:22:23.204Z,1.90
2023-03-18T07:24:53.573Z,1.97
2023-03-18T07:27:21.785Z,2.20
2023-03-18T07:29:49.957Z,1.63
2023-03-18T07:32:19.105Z,1.77
2023-03-18T07:34:47.921Z,1.90
2023-03-18T07:37:16.781Z,1.83
2023-03-18T07:39:44.954Z,1.90
2023-03-18T07:42:14.650Z,1.70
2023-03-18T07:44:42.841Z,2.00
2023-03-18T07:47:11.114Z,1.80
2023-03-18T07:49:39.365Z,1.77
2023-03-18T07:52:07.380Z,1.87
2023-03-18T07:54:35.425Z,1.73
2023-03-18T07:57:04.069Z,1.90
2023-03-18T07:59:33.365Z,2.00
2023-03-18T08:02:01.456Z,1.90
2023-03-18T08:04:29.798Z,2.00
2023-03-18T08:06:58.328Z,1.80
2023-03-18T08:09:27.642Z,1.90
2023-03-18T08:11:55.501Z,1.70
2023-03-18T08:14:23.651Z,2.00
2023-03-18T08:16:53.770Z,2.00
2023-03-18T08:19:22.495Z,1.70
2023-03-18T08:21:50.650Z,1.37
2023-03-18T08:24:18.864Z,1.60
2023-03-18T08:26:47.226Z,1.90
2023-03-18T08:29:15.122Z,1.40
2023-03-18T08:31:43.016Z,1.60
2023-03-18T08:34:12.318Z,1.53
2023-03-18T08:36:42.365Z,1.30
2023-03-18T08:39:11.087Z,1.40
2023-03-18T08:41:40.019Z,1.23
2023-03-18T08:44:10.113Z,1.37
2023-03-18T08:46:38.046Z,1.20
2023-03-18T08:49:06.862Z,1.20
2023-03-18T08:51:36.039Z,1.20
2023-03-18T08:54:04.227Z,1.30
2023-03-18T08:56:32.389Z,1.17
2023-03-18T08:59:00.556Z,1.00
2023-03-18T09:01:28.790Z,1.00
2023-03-18T09:03:59.041Z,1.50
2023-03-18T09:06:27.702Z,1.20
2023-03-18T09:08:57.481Z,1.20
2023-03-18T09:11:25.832Z,1.10
2023-03-18T09:13:54.498Z,1.07
2023-03-18T09:16:22.900Z,1.10
2023-03-18T09:18:51.166Z,1.10
2023-03-18T09:21:19.327Z,1.23
2023-03-18T09:23:47.530Z,1.10
2023-03-18T09:26:17.238Z,1.00
2023-03-18T09:28:45.409Z,0.90
2023-03-18T09:31:15.481Z,1.27
2023-03-18T09:33:43.943Z,1.20
2023-03-18T09:36:12.402Z,1.00
2023-03-18T09:38:41.252Z,1.10
2023-03-18T09:41:16.401Z,1.10
2023-03-18T09:43:53.566Z,1.10
2023-03-18T09:46:25.779Z,1.10
2023-03-18T09:49:18.062Z,1.15
2023-03-18T09:51:52.174Z,0.88
2023-03-18T09:54:24.403Z,1.00
2023-03-18T09:56:54.372Z,1.00
2023-03-18T09:59:26.571Z,0.93
2023-03-18T10:01:56.149Z,0.87
2023-03-18T10:04:25.752Z,1.00
2023-03-18T10:06:56.927Z,1.00
2023-03-18T10:09:27.003Z,0.90
2023-03-18T10:11:58.321Z,0.80
2023-03-18T10:14:36.383Z,1.10
2023-03-18T10:17:09.264Z,1.00
2023-03-18T10:19:37.774Z,0.93
2023-03-18T10:22:15.230Z,1.00
2023-03-18T10:24:47.772Z,0.97
2023-03-18T10:27:19.076Z,0.90
2023-03-18T10:29:51.047Z,0.90
2023-03-18T10:32:27.828Z,1.10
2023-03-18T10:35:08.497Z,0.80
2023-03-18T10:37:41.789Z,0.80
2023-03-18T10:40:14.340Z,0.90
2023-03-18T10:42:42.632Z,1.00
2023-03-18T10:45:19.756Z,0.70
2023-03-18T10:47:49.527Z,1.10
2023-03-18T10:50:19.377Z,0.80
2023-03-18T10:52:49.625Z,0.93
2023-03-18T10:55:18.936Z,1.17
2023-03-18T10:57:47.116Z,0.80
2023-03-18T11:00:27.843Z,0.80
2023-03-18T11:02:57.016Z,1.00
2023-03-18T11:05:26.777Z,1.10
2023-03-18T11:07:59.841Z,1.10
2023-03-18T11:10:30.662Z,0.77
2023-03-18T11:13:02.272Z,1.00
2023-03-18T11:15:38.235Z,0.93
2023-03-18T11:18:06.758Z,1.10
2023-03-18T11:20:42.995Z,1.10
2023-03-18T11:23:17.818Z,1.23
2023-03-18T11:25:49.563Z,1.30
2023-03-18T11:28:22.996Z,1.50
2023-03-18T11:30:53.768Z,1.70
2023-03-18T11:33:25.400Z,1.57
2023-03-18T11:35:54.827Z,1.70
2023-03-18T11:38:27.304Z,1.40
2023-03-18T11:40:55.722Z,1.87
2023-03-18T11:43:25.508Z,1.63
2023-03-18T11:45:59.275Z,1.50
2023-03-18T11:48:31.386Z,1.30
2023-03-18T11:51:07.687Z,1.70
2023-03-18T11:53:44.088Z,1.60
2023-03-18T11:56:17.225Z,1.53
2023-03-18T11:59:01.397Z,1.53
2023-03-18T12:01:33.771Z,1.70
2023-03-18T12:04:20.353Z,1.80
2023-03-18T12:06:56.108Z,1.70
2023-03-18T12:09:26.952Z,1.77
2023-03-18T12:12:02.380Z,1.70
2023-03-18T12:14:34.446Z,1.50
2023-03-18T12:17:07.418Z,1.80
2023-03-18T12:19:53.263Z,1.83
2023-03-18T12:22:28.348Z,1.70
2023-03-18T12:25:06.695Z,1.97
2023-03-18T12:27:41.619Z,2.17
2023-03-18T12:30:16.571Z,1.63
2023-03-18T12:32:51.090Z,1.73
2023-03-18T12:35:37.192Z,2.30
2023-03-18T12:38:13.945Z,1.57
2023-03-18T12:40:47.063Z,1.83
2023-03-18T12:43:30.132Z,1.70
2023-03-18T12:46:00.683Z,1.60
2023-03-18T12:48:43.722Z,1.83
2023-03-18T12:51:14.426Z,2.03
2023-03-18T12:53:46.317Z,1.70
2023-03-18T12:56:17.277Z,2.67
2023-03-18T12:58:47.578Z,1.83
2023-03-18T13:01:19.040Z,2.10
2023-03-18T13:03:50.513Z,2.00
2023-03-18T13:06:22.412Z,1.77
2023-03-18T13:08:58.259Z,1.90
2023-03-18T13:11:31.687Z,2.00
2023-03-18T13:14:02.512Z,2.00
2023-03-18T13:16:31.919Z,1.83
2023-03-18T13:19:03.496Z,2.20
2023-03-18T13:21:33.242Z,2.03
2023-03-18T13:24:08.026Z,1.80
2023-03-18T13:26:45.107Z,2.07
2023-03-18T13:29:17.610Z,1.90
2023-03-18T13:31:52.298Z,1.90
2023-03-18T13:34:33.619Z,1.53
2023-03-18T13:37:15.657Z,1.67
2023-03-18T13:39:50.221Z,1.80
2023-03-18T13:42:23.173Z,1.90
2023-03-18T13:44:56.702Z,1.90
2023-03-18T13:47:25.491Z,1.67
2023-03-18T13:50:02.042Z,1.90
2023-03-18T13:52:35.083Z,1.63
2023-03-18T13:55:04.603Z,1.70
2023-03-18T13:57:49.272Z,1.60
2023-03-18T14:00:26.268Z,1.70
2023-03-18T14:03:17.113Z,1.60
2023-03-18T14:05:46.855Z,1.40
2023-03-18T14:08:33.882Z,1.30
2023-03-18T14:11:23.221Z,1.40
2023-03-18T14:13:52.273Z,1.43
2023-03-18T14:16:23.986Z,1.20
2023-03-18T14:18:57.546Z,1.47
2023-03-18T14:21:28.532Z,1.10
2023-03-18T14:24:06.966Z,1.17
2023-03-18T14:26:37.657Z,1.10
2023-03-18T14:29:18.274Z,1.07
2023-03-18T14:31:53.450Z,1.33
2023-03-18T14:34:26.577Z,1.57
2023-03-18T14:37:25.320Z,1.20
2023-03-18T14:39:55.864Z,1.23
2023-03-18T14:42:31.485Z,1.40
2023-03-18T14:45:04.384Z,1.50
2023-03-18T14:47:39.720Z,1.40
2023-03-18T14:50:15.755Z,1.20
2023-03-18T14:52:47.876Z,1.20
2023-03-18T14:55:18.706Z,1.37
2023-03-18T14:57:47.195Z,1.20
2023-03-18T15:00:16.276Z,1.30
2023-03-18T15:02:45.750Z,1.23
2023-03-18T15:05:16.110Z,1.00
2023-03-18T15:07:44.562Z,1.13
2023-03-18T15:10:15.284Z,1.30
2023-03-18T15:12:44.883Z,1.10
2023-03-18T15:15:16.148Z,0.90
2023-03-18T15:17:47.542Z,1.00
2023-03-18T15:20:16.161Z,1.20
2023-03-18T15:22:44.590Z,1.00
2023-03-18T15:25:18.240Z,1.10
2023-03-18T15:27:48.155Z,0.90
2023-03-18T15:30:26.936Z,1.03
2023-03-18T15:32:57.420Z,0.90
2023-03-18T15:35:26.580Z,1.83
2023-03-18T15:38:05.511Z,0.80
2023-03-18T15:40:36.205Z,0.93
2023-03-18T15:43:18.950Z,1.00
2023-03-18T15:45:48.190Z,0.90
2023-03-18T15:48:23.348Z,0.83
2023-03-18T15:50:55.388Z,1.03
2023-03-18T15:53:24.961Z,1.00
2023-03-18T15:55:55.357Z,0.90
2023-03-18T15:58:26.991Z,1.00
2023-03-18T16:00:56.474Z,1.27
2023-03-18T16:03:25.445Z,0.77
2023-03-18T16:05:54.288Z,1.30
2023-03-18T16:08:23.300Z,1.20
2023-03-18T16:10:52.614Z,1.07
2023-03-18T16:13:23.349Z,0.83
2023-03-18T16:15:53.158Z,1.30
2023-03-18T16:18:21.713Z,1.30
2023-03-18T16:20:50.283Z,0.83
2023-03-18T16:23:19.232Z,1.00
2023-03-18T16:25:48.753Z,1.30
2023-03-18T16:28:20.533Z,1.20
2023-03-18T16:30:49.545Z,1.07
2023-03-18T16:33:19.203Z,1.20
2023-03-18T16:35:48.651Z,1.17
2023-03-18T16:38:17.702Z,1.20
2023-03-18T16:40:47.282Z,1.30
2023-03-18T16:43:17.220Z,1.33
2023-03-18T16:45:47.176Z,1.30
2023-03-18T16:48:16.642Z,0.97
2023-03-18T16:50:47.891Z,1.20
2023-03-18T16:53:18.421Z,1.20
2023-03-18T16:55:47.396Z,1.23
2023-03-18T16:58:17.758Z,1.33
2023-03-18T17:00:48.182Z,1.30
2023-03-18T17:03:18.024Z,1.30
2023-03-18T17:05:50.259Z,1.30
2023-03-18T17:08:18.738Z,1.10
2023-03-18T17:10:48.083Z,1.30
2023-03-18T17:13:19.321Z,1.20
2023-03-18T17:15:47.533Z,1.30
2023-03-18T17:18:16.920Z,1.20
2023-03-18T17:20:45.888Z,1.13
2023-03-18T17:23:18.590Z,0.97
2023-03-18T17:25:49.205Z,1.47
2023-03-18T17:28:21.276Z,1.33
2023-03-18T17:30:49.534Z,1.20
2023-03-18T17:33:21.626Z,1.30
2023-03-18T17:35:49.818Z,1.37
2023-03-18T17:38:19.967Z,1.17
2023-03-18T17:40:48.663Z,1.40
2023-03-18T17:43:27.825Z,1.20
2023-03-18T17:45:56.732Z,1.20
2023-03-18T17:48:26.146Z,1.30
2023-03-18T17:50:55.751Z,1.40
2023-03-18T17:53:29.254Z,1.40
2023-03-18T17:55:57.628Z,1.00
2023-03-18T17:58:27.335Z,1.43
2023-03-18T18:00:55.842Z,1.40
2023-03-18T18:03:25.600Z,1.60
2023-03-18T18:05:54.913Z,1.30
2023-03-18T18:08:25.128Z,1.30
2023-03-18T18:10:55.981Z,1.40
2023-03-18T18:13:24.574Z,1.60
2023-03-18T18:15:52.841Z,1.30
2023-03-18T18:18:25.429Z,1.30
2023-03-18T18:20:55.142Z,1.60
2023-03-18T18:23:25.399Z,1.70
2023-03-18T18:25:55.000Z,1.50
2023-03-18T18:28:24.057Z,1.60
2023-03-18T18:30:52.208Z,1.40
2023-03-18T18:33:20.405Z,1.33
2023-03-18T18:35:48.589Z,1.60
2023-03-18T18:38:16.822Z,1.30
2023-03-18T18:40:46.214Z,1.63
2023-03-18T18:43:15.726Z,1.57
2023-03-18T18:45:44.199Z,1.80
2023-03-18T18:48:13.710Z,1.90
2023-03-18T18:50:42.388Z,1.60
2023-03-18T18:53:22.832Z,2.10
2023-03-18T18:55:51.214Z,1.80
2023-03-18T18:58:21.933Z,1.70
2023-03-18T19:00:51.267Z,1.60
2023-03-18T19:03:20.719Z,1.67
2023-03-18T19:05:50.694Z,1.50
2023-03-18T19:08:24.962Z,1.83
2023-03-18T19:10:56.431Z,1.80
2023-03-18T19:13:26.088Z,1.70
2023-03-18T19:15:55.634Z,1.63
2023-03-18T19:18:24.800Z,1.70
2023-03-18T19:20:53.103Z,1.60
2023-03-18T19:23:23.473Z,1.70
2023-03-18T19:25:52.382Z,1.70
2023-03-18T19:28:28.825Z,1.90
2023-03-18T19:30:59.577Z,1.70
2023-03-18T19:33:27.757Z,1.60
2023-03-18T19:35:55.993Z,1.60
2023-03-18T19:38:24.205Z,1.50
2023-03-18T19:40:53.857Z,1.60
2023-03-18T19:43:23.072Z,1.87
2023-03-18T19:45:52.099Z,1.70
2023-03-18T19:48:23.531Z,1.60
2023-03-18T19:50:52.352Z,1.73
2023-03-18T19:53:20.894Z,2.00
2023-03-18T19:55:49.326Z,1.70
2023-03-18T19:58:21.950Z,1.50
2023-03-18T20:00:51.580Z,1.60
2023-03-18T20:03:20.430Z,1.67
2023-03-18T20:05:50.177Z,1.53
2023-03-18T20:08:18.370Z,1.57
2023-03-18T20:10:46.554Z,1.50
2023-03-18T20:13:16.852Z,1.70
2023-03-18T20:15:45.233Z,1.50
2023-03-18T20:18:17.730Z,1.83
2023-03-18T20:20:46.859Z,1.70
2023-03-18T20:23:19.323Z,2.10
2023-03-18T20:25:51.079Z,2.17
2023-03-18T20:28:20.894Z,2.10
2023-03-18T20:30:51.422Z,1.87
2023-03-18T20:33:19.638Z,2.20
2023-03-18T20:35:49.182Z,1.90
2023-03-18T20:38:23.906Z,2.10
2023-03-18T20:40:52.205Z,2.27
2023-03-18T20:43:21.777Z,2.07
2023-03-18T20:45:51.330Z,2.00
2023-03-18T20:48:19.526Z,2.00
2023-03-18T20:50:48.252Z,2.17
2023-03-18T20:53:18.194Z,1.73
2023-03-18T20:55:48.205Z,2.20
2023-03-18T20:58:17.248Z,2.20
2023-03-18T21:00:46.998Z,2.43
2023-03-18T21:03:22.902Z,1.80
2023-03-18T21:05:51.166Z,1.90
2023-03-18T21:08:19.374Z,2.33
2023-03-18T21:10:48.920Z,1.93
2023-03-18T21:13:24.259Z,2.13
2023-03-18T21:15:52.833Z,2.20
2023-03-18T21:18:20.981Z,2.13
2023-03-18T21:20:49.188Z,1.93
2023-03-18T21:23:24.270Z,2.20
2023-03-18T21:25:54.219Z,2.40
2023-03-18T21:28:23.665Z,2.40
2023-03-18T21:30:52.706Z,2.67
2023-03-18T21:33:22.774Z,2.27
2023-03-18T21:35:52.420Z,2.50
2023-03-18T21:38:20.698Z,2.60
2023-03-18T21:40:48.854Z,3.03
2023-03-18T21:43:25.909Z,3.00
2023-03-18T21:45:54.101Z,3.27
2023-03-18T21:48:22.369Z,2.83
2023-03-18T21:50:50.719Z,2.70
2023-03-18T21:53:19.891Z,2.00
2023-03-18T21:55:48.400Z,2.07
2023-03-18T21:58:17.688Z,2.53
2023-03-18T22:00:49.250Z,2.30
2023-03-18T22:03:18.356Z,2.90
2023-03-18T22:05:48.548Z,2.37
2023-03-18T22:08:16.776Z,2.50
2023-03-18T22:10:44.988Z,2.53
2023-03-18T22:13:20.113Z,2.47
2023-03-18T22:15:50.301Z,2.83
2023-03-18T22:18:18.637Z,2.57
2023-03-18T22:20:47.835Z,2.80
2023-03-18T22:23:17.743Z,3.07
2023-03-18T22:25:46.781Z,2.60
2023-03-18T22:28:15.211Z,2.50
2023-03-18T22:30:44.098Z,2.33
2023-03-18T22:33:20.285Z,2.37
2023-03-18T22:35:48.572Z,2.40
2023-03-18T22:38:17.544Z,2.10
2023-03-18T22:40:46.795Z,1.60
2023-03-18T22:43:20.649Z,2.43
2023-03-18T22:45:48.820Z,2.40
2023-03-18T22:48:18.875Z,2.10
2023-03-18T22:50:47.305Z,2.00
2023-03-18T22:53:19.415Z,2.50
2023-03-18T22:55:47.973Z,2.10
2023-03-18T22:58:19.338Z,2.43
2023-03-18T23:00:47.919Z,2.17
2023-03-18T23:03:18.599Z,2.40
2023-03-18T23:05:48.673Z,1.93
2023-03-18T23:08:17.138Z,2.10
2023-03-18T23:10:45.715Z,2.03
2023-03-18T23:13:17.694Z,2.20
2023-03-18T23:15:46.311Z,2.47
2023-03-18T23:18:16.268Z,2.30
2023-03-18T23:20:45.010Z,2.50
2023-03-18T23:23:15.043Z,2.20
2023-03-18T23:25:44.183Z,1.90
2023-03-18T23:28:12.509Z,2.43
2023-03-18T23:30:41.870Z,2.50
2023-03-18T23:33:10.698Z,2.40
2023-03-18T23:35:39.125Z,2.10
2023-03-18T23:38:07.905Z,2.17
2023-03-18T23:40:38.248Z,2.23
2023-03-18T23:43:07.947Z,2.20
2023-03-18T23:45:37.463Z,2.30
2023-03-18T23:48:06.672Z,2.50
2023-03-18T23:50:34.923Z,2.60
2023-03-18T23:53:03.076Z,2.47
2023-03-18T23:55:34.833Z,2.27
2023-03-18T23:58:07.598Z,2.70
